sensor_id;sensor_type;location;lat;lon;timestamp;pressure;altitude;pressure_sealevel;temperature;humidity
39773;BME280;25451;51.960;6.250;2023-04-01T00:00:26;98951.56;;;11.55;79.21
39773;BME280;25451;51.960;6.250;2023-04-01T00:02:52;98939.00;;;11.44;78.97
39773;BME280;25451;51.960;6.250;2023-04-01T00:05:17;98947.53;;;11.48;79.05
39773;BME280;25451;51.960;6.250;2023-04-01T00:07:43;98962.41;;;11.52;79.05
39773;BME280;25451;51.960;6.250;2023-04-01T00:10:10;98956.03;;;11.51;79.08
39773;BME280;25451;51.960;6.250;2023-04-01T00:12:36;98944.00;;;11.42;79.23
39773;BME280;25451;51.960;6.250;2023-04-01T00:15:03;98946.69;;;11.47;79.19
39773;BME280;25451;51.960;6.250;2023-04-01T00:17:29;98958.06;;;11.46;79.32
39773;BME280;25451;51.960;6.250;2023-04-01T00:19:55;98955.81;;;11.48;79.44
39773;BME280;25451;51.960;6.250;2023-04-01T00:22:21;98955.00;;;11.47;79.44
39773;BME280;25451;51.960;6.250;2023-04-01T00:24:47;98941.22;;;11.42;79.33
39773;BME280;25451;51.960;6.250;2023-04-01T00:27:12;98960.50;;;11.47;79.26
39773;BME280;25451;51.960;6.250;2023-04-01T00:29:37;98949.47;;;11.47;79.47
39773;BME280;25451;51.960;6.250;2023-04-01T00:32:03;98949.47;;;11.47;79.54
39773;BME280;25451;51.960;6.250;2023-04-01T00:34:28;98953.31;;;11.46;79.64
39773;BME280;25451;51.960;6.250;2023-04-01T00:36:53;98961.63;;;11.46;79.64
39773;BME280;25451;51.960;6.250;2023-04-01T00:39:20;98957.22;;;11.45;79.70
39773;BME280;25451;51.960;6.250;2023-04-01T00:41:46;98936.66;;;11.33;79.41
39773;BME280;25451;51.960;6.250;2023-04-01T00:46:44;98940.19;;;11.38;79.36
39773;BME280;25451;51.960;6.250;2023-04-01T00:49:09;98957.78;;;11.42;79.41
39773;BME280;25451;51.960;6.250;2023-04-01T00:51:37;98951.19;;;11.43;79.49
39773;BME280;25451;51.960;6.250;2023-04-01T00:54:04;98957.00;;;11.42;79.40
39773;BME280;25451;51.960;6.250;2023-04-01T00:56:32;98968.84;;;11.42;79.64
39773;BME280;25451;51.960;6.250;2023-04-01T00:59:02;98941.34;;;11.32;79.69
39773;BME280;25451;51.960;6.250;2023-04-01T01:01:29;98956.47;;;11.40;79.68
39773;BME280;25451;51.960;6.250;2023-04-01T01:03:55;98959.75;;;11.42;79.71
39773;BME280;25451;51.960;6.250;2023-04-01T01:06:42;98954.50;;;11.40;79.66
39773;BME280;25451;51.960;6.250;2023-04-01T01:09:18;98960.03;;;11.40;79.95
39773;BME280;25451;51.960;6.250;2023-04-01T01:14:25;98962.53;;;11.42;79.77
39773;BME280;25451;51.960;6.250;2023-04-01T01:17:02;98960.88;;;11.41;79.88
39773;BME280;25451;51.960;6.250;2023-04-01T01:22:17;98964.47;;;11.41;79.59
39773;BME280;25451;51.960;6.250;2023-04-01T01:25:00;98968.31;;;11.40;79.86
39773;BME280;25451;51.960;6.250;2023-04-01T01:27:38;98964.75;;;11.40;79.93
39773;BME280;25451;51.960;6.250;2023-04-01T01:35:38;98957.56;;;11.39;79.99
39773;BME280;25451;51.960;6.250;2023-04-01T01:38:10;98967.22;;;11.41;79.80
39773;BME280;25451;51.960;6.250;2023-04-01T01:40:39;98971.91;;;11.41;79.94
39773;BME280;25451;51.960;6.250;2023-04-01T01:43:09;98965.84;;;11.39;79.89
39773;BME280;25451;51.960;6.250;2023-04-01T01:45:38;98957.03;;;11.37;80.12
39773;BME280;25451;51.960;6.250;2023-04-01T01:48:06;98973.28;;;11.43;80.06
39773;BME280;25451;51.960;6.250;2023-04-01T01:50:33;98971.69;;;11.37;79.95
39773;BME280;25451;51.960;6.250;2023-04-01T01:53:03;98982.38;;;11.44;80.09
39773;BME280;25451;51.960;6.250;2023-04-01T01:55:35;98967.22;;;11.41;80.27
39773;BME280;25451;51.960;6.250;2023-04-01T01:58:07;98976.03;;;11.43;80.05
39773;BME280;25451;51.960;6.250;2023-04-01T02:00:35;98965.63;;;11.35;80.06
39773;BME280;25451;51.960;6.250;2023-04-01T02:03:01;98974.91;;;11.44;80.03
39773;BME280;25451;51.960;6.250;2023-04-01T02:05:28;98967.00;;;11.38;79.92
39773;BME280;25451;51.960;6.250;2023-04-01T02:08:16;98980.94;;;11.46;79.96
39773;BME280;25451;51.960;6.250;2023-04-01T02:10:53;98985.94;;;11.44;80.28
39773;BME280;25451;51.960;6.250;2023-04-01T02:13:50;98987.59;;;11.45;80.03
39773;BME280;25451;51.960;6.250;2023-04-01T02:16:24;98986.25;;;11.43;80.03
39773;BME280;25451;51.960;6.250;2023-04-01T02:18:53;98986.78;;;11.45;80.12
39773;BME280;25451;51.960;6.250;2023-04-01T02:21:22;98985.94;;;11.44;80.17
39773;BME280;25451;51.960;6.250;2023-04-01T02:23:49;98992.00;;;11.46;80.34
39773;BME280;25451;51.960;6.250;2023-04-01T02:26:16;98992.00;;;11.46;79.95
39773;BME280;25451;51.960;6.250;2023-04-01T02:28:42;99004.72;;;11.47;80.05
39773;BME280;25451;51.960;6.250;2023-04-01T02:31:12;98997.53;;;11.46;79.98
39773;BME280;25451;51.960;6.250;2023-04-01T02:33:39;99003.06;;;11.46;80.14
39773;BME280;25451;51.960;6.250;2023-04-01T02:36:05;98996.72;;;11.46;80.22
39773;BME280;25451;51.960;6.250;2023-04-01T02:38:31;98988.78;;;11.39;80.45
39773;BME280;25451;51.960;6.250;2023-04-01T02:41:00;98995.06;;;11.45;80.18
39773;BME280;25451;51.960;6.250;2023-04-01T02:43:27;99002.53;;;11.44;80.19
39773;BME280;25451;51.960;6.250;2023-04-01T02:45:53;99001.41;;;11.45;80.09
39773;BME280;25451;51.960;6.250;2023-04-01T02:48:18;98999.00;;;11.39;80.39
39773;BME280;25451;51.960;6.250;2023-04-01T02:50:44;99004.72;;;11.47;80.30
39773;BME280;25451;51.960;6.250;2023-04-01T02:53:09;99011.88;;;11.48;80.43
39773;BME280;25451;51.960;6.250;2023-04-01T02:55:35;99002.81;;;11.43;80.36
39773;BME280;25451;51.960;6.250;2023-04-01T02:58:00;99011.88;;;11.48;80.31
39773;BME280;25451;51.960;6.250;2023-04-01T03:00:26;99005.28;;;11.44;80.28
39773;BME280;25451;51.960;6.250;2023-04-01T03:02:52;99006.13;;;11.45;80.50
39773;BME280;25451;51.960;6.250;2023-04-01T03:05:17;98992.38;;;11.40;80.26
39773;BME280;25451;51.960;6.250;2023-04-01T03:07:43;99009.41;;;11.47;80.16
39773;BME280;25451;51.960;6.250;2023-04-01T03:10:09;98998.72;;;11.40;80.39
39773;BME280;25451;51.960;6.250;2023-04-01T03:12:34;99017.38;;;11.48;80.38
39773;BME280;25451;51.960;6.250;2023-04-01T03:14:59;99012.47;;;11.45;80.67
39773;BME280;25451;51.960;6.250;2023-04-01T03:17:25;99005.28;;;11.44;80.55
39773;BME280;25451;51.960;6.250;2023-04-01T03:19:50;99023.44;;;11.50;80.28
39773;BME280;25451;51.960;6.250;2023-04-01T03:22:16;99024.56;;;11.49;80.40
39773;BME280;25451;51.960;6.250;2023-04-01T03:24:41;98999.88;;;11.34;80.07
39773;BME280;25451;51.960;6.250;2023-04-01T03:27:06;99024.91;;;11.43;80.38
39773;BME280;25451;51.960;6.250;2023-04-01T03:29:32;99033.97;;;11.48;80.56
39773;BME280;25451;51.960;6.250;2023-04-01T03:31:57;99034.78;;;11.49;80.27
39773;BME280;25451;51.960;6.250;2023-04-01T03:34:24;99027.69;;;11.43;80.58
39773;BME280;25451;51.960;6.250;2023-04-01T03:36:51;99033.97;;;11.48;80.54
39773;BME280;25451;51.960;6.250;2023-04-01T03:39:16;99045.00;;;11.48;80.55
39773;BME280;25451;51.960;6.250;2023-04-01T03:41:44;99044.22;;;11.48;80.62
39773;BME280;25451;51.960;6.250;2023-04-01T03:44:09;99047.25;;;11.46;80.77
39773;BME280;25451;51.960;6.250;2023-04-01T03:46:35;99035.97;;;11.43;80.52
39773;BME280;25451;51.960;6.250;2023-04-01T03:49:00;99033.50;;;11.41;80.52
39773;BME280;25451;51.960;6.250;2023-04-01T03:51:25;99042.56;;;11.47;80.67
39773;BME280;25451;51.960;6.250;2023-04-01T03:53:51;99046.16;;;11.47;80.41
39773;BME280;25451;51.960;6.250;2023-04-01T03:56:16;99046.16;;;11.47;80.73
39773;BME280;25451;51.960;6.250;2023-04-01T03:58:42;99039.03;;;11.41;80.54
39773;BME280;25451;51.960;6.250;2023-04-01T04:01:21;99044.50;;;11.46;80.64
39773;BME280;25451;51.960;6.250;2023-04-01T04:03:46;99043.16;;;11.44;80.76
39773;BME280;25451;51.960;6.250;2023-04-01T04:06:14;99041.19;;;11.44;80.57
39773;BME280;25451;51.960;6.250;2023-04-01T04:08:40;99039.59;;;11.38;80.68
39773;BME280;25451;51.960;6.250;2023-04-01T04:11:06;99044.25;;;11.43;80.25
39773;BME280;25451;51.960;6.250;2023-04-01T04:13:31;99053.38;;;11.43;80.83
39773;BME280;25451;51.960;6.250;2023-04-01T04:15:56;99054.47;;;11.42;80.75
39773;BME280;25451;51.960;6.250;2023-04-01T04:18:22;99058.06;;;11.43;80.72
39773;BME280;25451;51.960;6.250;2023-04-01T04:20:48;99056.13;;;11.43;80.77
39773;BME280;25451;51.960;6.250;2023-04-01T04:23:16;99063.59;;;11.43;80.71
39773;BME280;25451;51.960;6.250;2023-04-01T04:25:41;99052.84;;;11.41;80.46
39773;BME280;25451;51.960;6.250;2023-04-01T04:28:06;99053.94;;;11.40;80.57
39773;BME280;25451;51.960;6.250;2023-04-01T04:30:32;99054.56;;;11.37;80.48
39773;BME280;25451;51.960;6.250;2023-04-01T04:32:57;99057.84;;;11.39;80.59
39773;BME280;25451;51.960;6.250;2023-04-01T04:35:22;99057.84;;;11.39;80.57
39773;BME280;25451;51.960;6.250;2023-04-01T04:37:47;99063.66;;;11.38;80.82
39773;BME280;25451;51.960;6.250;2023-04-01T04:40:13;99061.72;;;11.38;80.71
39773;BME280;25451;51.960;6.250;2023-04-01T04:42:38;99065.59;;;11.37;80.82
39773;BME280;25451;51.960;6.250;2023-04-01T04:45:03;99066.69;;;11.36;80.80
39773;BME280;25451;51.960;6.250;2023-04-01T04:47:29;99069.47;;;11.36;80.53
39773;BME280;25451;51.960;6.250;2023-04-01T04:49:54;99073.34;;;11.35;80.81
39773;BME280;25451;51.960;6.250;2023-04-01T04:52:20;99073.66;;;11.34;80.91
39773;BME280;25451;51.960;6.250;2023-04-01T04:54:45;99072.81;;;11.33;80.69
39773;BME280;25451;51.960;6.250;2023-04-01T04:57:10;99070.63;;;11.30;80.86
39773;BME280;25451;51.960;6.250;2023-04-01T04:59:36;99079.44;;;11.32;80.62
39773;BME280;25451;51.960;6.250;2023-04-01T05:02:01;99074.75;;;11.33;80.85
39773;BME280;25451;51.960;6.250;2023-04-01T05:04:27;99080.56;;;11.31;80.83
39773;BME280;25451;51.960;6.250;2023-04-01T05:06:52;99087.19;;;11.30;80.96
39773;BME280;25451;51.960;6.250;2023-04-01T05:09:18;99078.38;;;11.28;80.93
39773;BME280;25451;51.960;6.250;2023-04-01T05:11:43;99084.44;;;11.30;80.95
39773;BME280;25451;51.960;6.250;2023-04-01T05:14:15;99061.38;;;11.16;80.83
39773;BME280;25451;51.960;6.250;2023-04-01T05:16:41;99082.28;;;11.27;80.74
39773;BME280;25451;51.960;6.250;2023-04-01T05:19:06;99084.75;;;11.29;80.95
39773;BME280;25451;51.960;6.250;2023-04-01T05:21:31;99086.66;;;11.28;80.65
39773;BME280;25451;51.960;6.250;2023-04-01T05:23:57;99087.81;;;11.27;80.95
39773;BME280;25451;51.960;6.250;2023-04-01T05:26:22;99086.66;;;11.28;80.96
39773;BME280;25451;51.960;6.250;2023-04-01T05:28:47;99074.09;;;11.17;81.08
39773;BME280;25451;51.960;6.250;2023-04-01T05:31:12;99086.13;;;11.26;80.68
39773;BME280;25451;51.960;6.250;2023-04-01T05:33:38;99102.72;;;11.26;80.84
39773;BME280;25451;51.960;6.250;2023-04-01T05:36:14;99090.03;;;11.25;80.77
39773;BME280;25451;51.960;6.250;2023-04-01T05:38:41;99102.72;;;11.26;81.02
39773;BME280;25451;51.960;6.250;2023-04-01T05:41:07;99097.47;;;11.25;81.09
39773;BME280;25451;51.960;6.250;2023-04-01T05:43:35;99102.72;;;11.26;80.89
39773;BME280;25451;51.960;6.250;2023-04-01T05:46:01;99088.47;;;11.14;80.84
39773;BME280;25451;51.960;6.250;2023-04-01T05:48:26;99105.47;;;11.26;80.99
39773;BME280;25451;51.960;6.250;2023-04-01T05:50:51;99109.38;;;11.25;81.10
39773;BME280;25451;51.960;6.250;2023-04-01T05:53:16;99111.28;;;11.25;80.87
39773;BME280;25451;51.960;6.250;2023-04-01T05:55:42;99113.22;;;11.24;80.86
39773;BME280;25451;51.960;6.250;2023-04-01T05:58:07;99114.06;;;11.25;81.08
39773;BME280;25451;51.960;6.250;2023-04-01T06:00:32;99119.88;;;11.23;80.74
39773;BME280;25451;51.960;6.250;2023-04-01T06:02:59;99111.28;;;11.25;81.09
39773;BME280;25451;51.960;6.250;2023-04-01T06:05:28;99102.28;;;11.14;80.87
39773;BME280;25451;51.960;6.250;2023-04-01T06:07:59;99118.75;;;11.24;80.96
39773;BME280;25451;51.960;6.250;2023-04-01T06:19:07;99133.69;;;11.23;80.91
39773;BME280;25451;51.960;6.250;2023-04-01T06:29:49;99148.31;;;11.24;80.88
39773;BME280;25451;51.960;6.250;2023-04-01T06:38:12;99159.06;;;11.25;80.83
39773;BME280;25451;51.960;6.250;2023-04-01T06:43:52;99161.81;;;11.25;81.02
39773;BME280;25451;51.960;6.250;2023-04-01T06:49:17;99173.94;;;11.29;81.07
39773;BME280;25451;51.960;6.250;2023-04-01T06:52:14;99174.78;;;11.30;80.97
39773;BME280;25451;51.960;6.250;2023-04-01T06:54:51;99180.00;;;11.31;80.95
39773;BME280;25451;51.960;6.250;2023-04-01T06:57:31;99186.63;;;11.30;80.71
39773;BME280;25451;51.960;6.250;2023-04-01T07:00:01;99183.88;;;11.30;80.95
39773;BME280;25451;51.960;6.250;2023-04-01T07:04:58;99200.41;;;11.35;80.81
39773;BME280;25451;51.960;6.250;2023-04-01T07:07:35;99193.75;;;11.36;80.82
39773;BME280;25451;51.960;6.250;2023-04-01T07:10:06;99202.88;;;11.37;80.71
39773;BME280;25451;51.960;6.250;2023-04-01T07:12:54;99203.41;;;11.39;80.95
39773;BME280;25451;51.960;6.250;2023-04-01T07:15:33;99205.94;;;11.35;80.71
39773;BME280;25451;51.960;6.250;2023-04-01T07:18:10;99213.09;;;11.36;80.79
39773;BME280;25451;51.960;6.250;2023-04-01T07:20:38;99218.88;;;11.40;81.05
39773;BME280;25451;51.960;6.250;2023-04-01T07:23:21;99226.88;;;11.41;81.08
39773;BME280;25451;51.960;6.250;2023-04-01T07:25:52;99223.28;;;11.41;80.78
39773;BME280;25451;51.960;6.250;2023-04-01T07:28:18;99227.41;;;11.43;80.92
39773;BME280;25451;51.960;6.250;2023-04-01T07:34:09;99241.16;;;11.48;81.13
39773;BME280;25451;51.960;6.250;2023-04-01T07:39:39;99246.66;;;11.53;81.00
39773;BME280;25451;51.960;6.250;2023-04-01T07:56:09;99268.03;;;11.77;80.89
39773;BME280;25451;51.960;6.250;2023-04-01T07:59:01;99274.03;;;11.84;80.79
39773;BME280;25451;51.960;6.250;2023-04-01T08:01:41;99282.56;;;11.87;80.97
39773;BME280;25451;51.960;6.250;2023-04-01T08:07:10;99295.25;;;11.93;80.92
39773;BME280;25451;51.960;6.250;2023-04-01T08:09:48;99293.84;;;11.96;81.06
39773;BME280;25451;51.960;6.250;2023-04-01T08:15:28;99311.78;;;11.98;80.97
39773;BME280;25451;51.960;6.250;2023-04-01T08:23:30;99319.22;;;12.03;81.02
39773;BME280;25451;51.960;6.250;2023-04-01T08:26:12;99309.31;;;11.97;81.23
39773;BME280;25451;51.960;6.250;2023-04-01T08:28:49;99322.81;;;12.03;81.09
39773;BME280;25451;51.960;6.250;2023-04-01T08:31:19;99311.25;;;11.96;81.11
39773;BME280;25451;51.960;6.250;2023-04-01T08:33:48;99329.16;;;12.04;81.38
39773;BME280;25451;51.960;6.250;2023-04-01T08:36:21;99327.53;;;12.03;81.12
39773;BME280;25451;51.960;6.250;2023-04-01T08:38:57;99338.28;;;12.04;81.31
39773;BME280;25451;51.960;6.250;2023-04-01T09:00:57;99371.97;;;12.11;81.25
39773;BME280;25451;51.960;6.250;2023-04-01T09:07:40;99365.31;;;12.12;81.10
39773;BME280;25451;51.960;6.250;2023-04-01T09:15:12;99382.13;;;12.16;81.35
39773;BME280;25451;51.960;6.250;2023-04-01T09:18:07;99384.34;;;12.19;81.40
39773;BME280;25451;51.960;6.250;2023-04-01T09:23:26;99388.41;;;12.26;81.52
39773;BME280;25451;51.960;6.250;2023-04-01T09:26:08;99387.84;;;12.29;81.52
39773;BME280;25451;51.960;6.250;2023-04-01T09:34:15;99404.00;;;12.46;81.42
39773;BME280;25451;51.960;6.250;2023-04-01T09:39:36;99407.78;;;12.55;81.21
39773;BME280;25451;51.960;6.250;2023-04-01T09:44:34;99409.91;;;12.63;81.18
39773;BME280;25451;51.960;6.250;2023-04-01T09:50:03;99415.34;;;12.73;81.37
39773;BME280;25451;51.960;6.250;2023-04-01T10:12:36;99446.09;;;12.95;81.49
39773;BME280;25451;51.960;6.250;2023-04-01T10:24:21;99457.19;;;12.95;81.87
39773;BME280;25451;51.960;6.250;2023-04-01T10:27:20;99452.47;;;12.96;81.67
39773;BME280;25451;51.960;6.250;2023-04-01T10:38:08;99459.31;;;13.03;81.84
39773;BME280;25451;51.960;6.250;2023-04-01T10:51:45;99476.88;;;13.22;81.68
39773;BME280;25451;51.960;6.250;2023-04-01T11:00:18;99491.72;;;13.32;81.83
39773;BME280;25451;51.960;6.250;2023-04-01T11:15:15;99509.00;;;13.47;81.78
39773;BME280;25451;51.960;6.250;2023-04-01T11:35:02;99532.50;;;13.73;81.93
39773;BME280;25451;51.960;6.250;2023-04-01T11:37:51;99537.19;;;13.78;81.95
39773;BME280;25451;51.960;6.250;2023-04-01T11:40:32;99540.47;;;13.80;81.97
39773;BME280;25451;51.960;6.250;2023-04-01T11:43:36;99550.97;;;13.83;81.58
39773;BME280;25451;51.960;6.250;2023-04-01T11:46:27;99546.53;;;13.82;81.68
39773;BME280;25451;51.960;6.250;2023-04-01T11:52:17;99551.03;;;13.78;81.91
39773;BME280;25451;51.960;6.250;2023-04-01T11:55:32;99560.09;;;13.83;82.10
39773;BME280;25451;51.960;6.250;2023-04-01T11:58:47;99564.81;;;13.83;82.12
39773;BME280;25451;51.960;6.250;2023-04-01T12:09:42;99577.59;;;13.84;81.89
39773;BME280;25451;51.960;6.250;2023-04-01T12:15:13;99589.78;;;13.83;82.12
39773;BME280;25451;51.960;6.250;2023-04-01T12:20:43;99588.69;;;13.84;81.84
39773;BME280;25451;51.960;6.250;2023-04-01T12:26:14;99591.44;;;13.84;81.97
39773;BME280;25451;51.960;6.250;2023-04-01T12:29:22;99595.59;;;13.86;81.89
39773;BME280;25451;51.960;6.250;2023-04-01T12:35:43;99603.84;;;13.91;81.89
39773;BME280;25451;51.960;6.250;2023-04-01T12:38:23;99606.31;;;13.93;81.84
39773;BME280;25451;51.960;6.250;2023-04-01T12:41:05;99611.28;;;13.96;82.00
39773;BME280;25451;51.960;6.250;2023-04-01T12:46:22;99619.50;;;14.01;81.77
39773;BME280;25451;51.960;6.250;2023-04-01T12:57:29;99636.63;;;14.08;81.87
39773;BME280;25451;51.960;6.250;2023-04-01T13:08:23;99646.31;;;14.10;81.88
39773;BME280;25451;51.960;6.250;2023-04-01T13:11:01;99651.88;;;14.10;81.92
39773;BME280;25451;51.960;6.250;2023-04-01T13:16:23;99656.91;;;14.08;82.21
39773;BME280;25451;51.960;6.250;2023-04-01T13:19:04;99666.31;;;14.07;82.19
39773;BME280;25451;51.960;6.250;2023-04-01T13:24:36;99675.25;;;14.04;81.84
39773;BME280;25451;51.960;6.250;2023-04-01T13:35:33;99703.69;;;13.91;81.96
39773;BME280;25451;51.960;6.250;2023-04-01T13:43:50;99704.09;;;13.80;82.06
39773;BME280;25451;51.960;6.250;2023-04-01T13:46:31;99709.94;;;13.78;81.97
39773;BME280;25451;51.960;6.250;2023-04-01T13:49:06;99707.75;;;13.75;82.16
39773;BME280;25451;51.960;6.250;2023-04-01T14:00:25;99728.00;;;13.42;82.18
39773;BME280;25451;51.960;6.250;2023-04-01T14:05:52;99729.84;;;13.23;82.27
39773;BME280;25451;51.960;6.250;2023-04-01T14:22:46;99755.22;;;12.91;82.65
39773;BME280;25451;51.960;6.250;2023-04-01T14:25:41;99765.47;;;12.91;82.79
39773;BME280;25451;51.960;6.250;2023-04-01T14:34:00;99775.19;;;12.83;82.62
39773;BME280;25451;51.960;6.250;2023-04-01T14:39:38;99786.56;;;12.82;82.32
39773;BME280;25451;51.960;6.250;2023-04-01T14:49:52;99783.00;;;12.71;82.20
39773;BME280;25451;51.960;6.250;2023-04-01T14:54:46;99807.31;;;12.84;82.34
39773;BME280;25451;51.960;6.250;2023-04-01T14:57:16;99807.88;;;12.86;82.57
39773;BME280;25451;51.960;6.250;2023-04-01T14:59:51;99805.13;;;12.81;82.54
39773;BME280;25451;51.960;6.250;2023-04-01T15:05:26;99821.13;;;12.89;81.98
39773;BME280;25451;51.960;6.250;2023-04-01T15:08:12;99830.28;;;12.90;81.97
39773;BME280;25451;51.960;6.250;2023-04-01T15:13:58;99831.13;;;12.90;82.25
39773;BME280;25451;51.960;6.250;2023-04-01T15:17:36;99833.03;;;12.90;81.97
39773;BME280;25451;51.960;6.250;2023-04-01T15:20:25;99841.06;;;12.91;82.07
39773;BME280;25451;51.960;6.250;2023-04-01T15:29:04;99859.34;;;12.92;82.22
39773;BME280;25451;51.960;6.250;2023-04-01T15:31:50;99862.13;;;12.92;82.08
39773;BME280;25451;51.960;6.250;2023-04-01T15:34:32;99868.50;;;12.93;82.12
39773;BME280;25451;51.960;6.250;2023-04-01T15:40:11;99882.06;;;12.94;81.80
39773;BME280;25451;51.960;6.250;2023-04-01T15:45:39;99892.88;;;12.91;82.07
39773;BME280;25451;51.960;6.250;2023-04-01T15:51:16;99902.88;;;12.82;82.06
39773;BME280;25451;51.960;6.250;2023-04-01T16:04:43;99916.22;;;12.55;82.16
39773;BME280;25451;51.960;6.250;2023-04-01T16:15:24;99938.66;;;12.43;82.64
39773;BME280;25451;51.960;6.250;2023-04-01T16:20:44;99958.31;;;12.41;82.44
39773;BME280;25451;51.960;6.250;2023-04-01T16:26:09;99956.38;;;12.37;82.56
39773;BME280;25451;51.960;6.250;2023-04-01T16:31:35;99961.09;;;12.31;82.68
39773;BME280;25451;51.960;6.250;2023-04-01T16:34:36;99956.94;;;12.29;82.48
39773;BME280;25451;51.960;6.250;2023-04-01T16:37:27;99969.09;;;12.28;82.43
39773;BME280;25451;51.960;6.250;2023-04-01T16:40:20;99978.22;;;12.28;82.45
39773;BME280;25451;51.960;6.250;2023-04-01T16:42:55;99985.16;;;12.21;82.75
39773;BME280;25451;51.960;6.250;2023-04-01T16:45:34;99991.22;;;12.18;82.31
39773;BME280;25451;51.960;6.250;2023-04-01T16:48:13;100002.00;;;12.14;82.59
39773;BME280;25451;51.960;6.250;2023-04-01T16:50:51;100013.91;;;12.10;82.62
39773;BME280;25451;51.960;6.250;2023-04-01T16:53:42;100022.19;;;12.05;82.77
39773;BME280;25451;51.960;6.250;2023-04-01T16:56:21;100023.28;;;11.99;82.81
39773;BME280;25451;51.960;6.250;2023-04-01T17:01:38;100035.97;;;11.90;83.03
39773;BME280;25451;51.960;6.250;2023-04-01T17:04:32;100040.41;;;11.86;82.89
39773;BME280;25451;51.960;6.250;2023-04-01T17:07:10;100038.44;;;11.81;82.89
39773;BME280;25451;51.960;6.250;2023-04-01T17:09:51;100046.97;;;11.70;83.13
39773;BME280;25451;51.960;6.250;2023-04-01T17:12:28;100063.03;;;11.73;82.93
39773;BME280;25451;51.960;6.250;2023-04-01T17:15:11;100064.69;;;11.69;83.06
39773;BME280;25451;51.960;6.250;2023-04-01T17:17:58;100062.41;;;11.65;83.28
39773;BME280;25451;51.960;6.250;2023-04-01T17:23:01;100086.44;;;11.60;83.19
39773;BME280;25451;51.960;6.250;2023-04-01T17:25:52;100089.44;;;11.53;83.06
39773;BME280;25451;51.960;6.250;2023-04-01T17:34:03;100105.63;;;11.35;83.10
39773;BME280;25451;51.960;6.250;2023-04-01T17:36:40;100124.13;;;11.29;83.47
39773;BME280;25451;51.960;6.250;2023-04-01T17:42:09;100137.88;;;11.19;83.39
39773;BME280;25451;51.960;6.250;2023-04-01T17:44:45;100123.97;;;11.09;83.27
39773;BME280;25451;51.960;6.250;2023-04-01T17:52:52;100148.19;;;10.97;83.42
39773;BME280;25451;51.960;6.250;2023-04-01T17:58:21;100167.53;;;10.97;83.32
39773;BME280;25451;51.960;6.250;2023-04-01T18:16:02;100219.16;;;10.70;83.66
39773;BME280;25451;51.960;6.250;2023-04-01T18:24:19;100240.28;;;10.59;83.59
39773;BME280;25451;51.960;6.250;2023-04-01T18:26:52;100244.06;;;10.53;83.64
39773;BME280;25451;51.960;6.250;2023-04-01T18:29:37;100239.78;;;10.41;83.64
39773;BME280;25451;51.960;6.250;2023-04-01T18:32:15;100257.56;;;10.50;83.72
39773;BME280;25451;51.960;6.250;2023-04-01T18:35:12;100268.28;;;10.46;83.56
39773;BME280;25451;51.960;6.250;2023-04-01T18:37:54;100286.19;;;10.44;83.62
39773;BME280;25451;51.960;6.250;2023-04-01T18:40:42;100289.22;;;10.42;83.50
39773;BME280;25451;51.960;6.250;2023-04-01T18:45:49;100296.56;;;10.37;83.59
39773;BME280;25451;51.960;6.250;2023-04-01T18:51:17;100312.47;;;10.30;83.71
39773;BME280;25451;51.960;6.250;2023-04-01T18:54:01;100303.13;;;10.14;83.63
39773;BME280;25451;51.960;6.250;2023-04-01T18:56:34;100323.97;;;10.22;83.65
39773;BME280;25451;51.960;6.250;2023-04-01T18:59:05;100325.28;;;10.19;83.66
39773;BME280;25451;51.960;6.250;2023-04-01T19:01:52;100323.81;;;10.12;83.69
39773;BME280;25451;51.960;6.250;2023-04-01T19:04:36;100343.69;;;10.14;83.88
39773;BME280;25451;51.960;6.250;2023-04-01T19:15:30;100361.38;;;10.01;83.79
39773;BME280;25451;51.960;6.250;2023-04-01T19:20:44;100377.50;;;9.92;83.76
39773;BME280;25451;51.960;6.250;2023-04-01T19:25:58;100394.91;;;9.93;83.79
39773;BME280;25451;51.960;6.250;2023-04-01T19:28:52;100400.09;;;9.89;83.77
39773;BME280;25451;51.960;6.250;2023-04-01T19:37:02;100413.19;;;9.82;83.73
39773;BME280;25451;51.960;6.250;2023-04-01T19:42:27;100418.09;;;9.80;83.63
39773;BME280;25451;51.960;6.250;2023-04-01T19:45:28;100424.09;;;9.77;83.78
39773;BME280;25451;51.960;6.250;2023-04-01T19:50:50;100441.63;;;9.71;83.76
39773;BME280;25451;51.960;6.250;2023-04-01T19:56:19;100444.31;;;9.66;83.59
39773;BME280;25451;51.960;6.250;2023-04-01T20:04:08;100469.50;;;9.58;83.54
39773;BME280;25451;51.960;6.250;2023-04-01T20:07:04;100471.94;;;9.55;83.62
39773;BME280;25451;51.960;6.250;2023-04-01T20:12:11;100493.88;;;9.50;83.74
39773;BME280;25451;51.960;6.250;2023-04-01T20:14:47;100499.03;;;9.46;83.62
39773;BME280;25451;51.960;6.250;2023-04-01T20:20:18;100502.78;;;9.40;83.65
39773;BME280;25451;51.960;6.250;2023-04-01T20:25:20;100524.09;;;9.33;83.62
39773;BME280;25451;51.960;6.250;2023-04-01T20:27:58;100523.16;;;9.28;83.76
39773;BME280;25451;51.960;6.250;2023-04-01T20:31:02;100523.41;;;9.26;83.88
39773;BME280;25451;51.960;6.250;2023-04-01T20:33:52;100532.16;;;9.23;83.92
39773;BME280;25451;51.960;6.250;2023-04-01T20:36:34;100547.00;;;9.22;83.66
39773;BME280;25451;51.960;6.250;2023-04-01T20:44:26;100560.66;;;9.17;83.69
39773;BME280;25451;51.960;6.250;2023-04-01T20:47:11;100525.97;;;8.93;83.40
39773;BME280;25451;51.960;6.250;2023-04-01T20:49:41;100570.72;;;9.11;83.59
39773;BME280;25451;51.960;6.250;2023-04-01T21:07:59;100614.06;;;8.93;83.79
39773;BME280;25451;51.960;6.250;2023-04-01T21:11:01;100621.72;;;8.91;83.47
39773;BME280;25451;51.960;6.250;2023-04-01T21:13:35;100614.06;;;8.81;83.98
39773;BME280;25451;51.960;6.250;2023-04-01T21:16:31;100624.47;;;8.79;83.85
39773;BME280;25451;51.960;6.250;2023-04-01T21:22:27;100652.19;;;8.78;83.50
39773;BME280;25451;51.960;6.250;2023-04-01T21:25:14;100623.97;;;8.59;83.27
39773;BME280;25451;51.960;6.250;2023-04-01T21:30:49;100667.84;;;8.66;83.80
39773;BME280;25451;51.960;6.250;2023-04-01T21:35:54;100675.38;;;8.59;83.61